Terminal Aerodrome Forecast
Issued by NWS

Home | Current Version | Previous Version | Text Only | Print | Product List | Glossary On
Versions: 1 2 3 4 5 6 7 8 9 10 11 12 13 14 15
000
FTUS44 KLZK 250520
TAFADF
TAF
KADF 250520Z 2506/2606 17005KT P6SM FEW040 SCT100
     FM250800 VRB03KT 6SM BR OVC015
      TEMPO 2509/2513 1SM BR BKN005 OVC030
     FM251500 18007KT P6SM VCSH BKN035 BKN250=

USA.gov is the U.S. government's official web portal to all federal, state and local government web resources and services.